Time;durP1;ratioP1;P1;durP2;ratioP2;P2;SDS_P1;SDS_P2;PMS_P1;PMS_P2;Temp;Humidity;BMP_temperature;BMP_pressure;BME280_temperature;BME280_humidity;BME280_pressure;Samples;Min_cycle;Max_cycle;Signal;HPM_P1;HPM_P2
2024/02/08 00:00:46;;;;;;;6.22;3.50;;;;;;;;;;5073963;28;20193;-67
2024/02/08 00:03:13;;;;;;;11.68;4.00;;;;;;;;;;5073891;28;20252;-68
2024/02/08 00:05:41;;;;;;;7.40;3.75;;;;;;;;;;5073817;28;20263;-67
2024/02/08 00:08:11;;;;;;;6.25;3.60;;;;;;;;;;5073690;28;20705;-67
2024/02/08 00:10:38;;;;;;;7.00;3.33;;;;;;;;;;5073561;28;20224;-67
2024/02/08 00:13:06;;;;;;;6.03;3.40;;;;;;;;;;5073502;28;20193;-67
2024/02/08 00:15:34;;;;;;;7.60;3.40;;;;;;;;;;5073345;28;20680;-67
2024/02/08 00:18:01;;;;;;;5.53;3.72;;;;;;;;;;5073546;28;20196;-68
2024/02/08 00:20:28;;;;;;;12.77;4.25;;;;;;;;;;5073308;28;20709;-67
2024/02/08 00:22:55;;;;;;;13.10;3.30;;;;;;;;;;5073405;28;20281;-68
2024/02/08 00:25:23;;;;;;;6.03;3.60;;;;;;;;;;5073210;28;20316;-68
2024/02/08 00:27:50;;;;;;;9.32;3.10;;;;;;;;;;5073328;28;20603;-68
2024/02/08 00:30:18;;;;;;;7.53;3.92;;;;;;;;;;5073503;28;20276;-68
2024/02/08 00:32:48;;;;;;;5.97;3.80;;;;;;;;;;5073473;28;20193;-67
2024/02/08 00:35:17;;;;;;;6.55;3.42;;;;;;;;;;5073340;28;20220;-68
2024/02/08 00:37:46;;;;;;;7.20;3.40;;;;;;;;;;5073141;28;20644;-67
2024/02/08 00:40:13;;;;;;;7.43;2.95;;;;;;;;;;5073175;28;20645;-67
2024/02/08 00:42:40;;;;;;;5.43;3.50;;;;;;;;;;5073260;28;20196;-67
2024/02/08 00:45:08;;;;;;;9.27;4.28;;;;;;;;;;5073143;28;20195;-67
2024/02/08 00:47:36;;;;;;;4.07;2.90;;;;;;;;;;5073190;28;20189;-67
2024/02/08 00:50:04;;;;;;;7.85;3.58;;;;;;;;;;5073012;28;20193;-67
2024/02/08 00:52:32;;;;;;;7.30;3.35;;;;;;;;;;5073003;28;20193;-67
2024/02/08 00:54:59;;;;;;;6.43;3.97;;;;;;;;;;5073076;28;20197;-67
2024/02/08 00:57:29;;;;;;;6.88;4.18;;;;;;;;;;5072859;28;20652;-67
2024/02/08 00:59:56;;;;;;;5.53;3.35;;;;;;;;;;5073010;28;20197;-67
2024/02/08 01:02:23;;;;;;;7.72;3.75;;;;;;;;;;5072947;28;20276;-67
2024/02/08 01:04:51;;;;;;;7.47;3.63;;;;;;;;;;5072103;28;20197;-67
2024/02/08 01:07:18;;;;;;;8.90;3.00;;;;;;;;;;5072845;28;20285;-67
2024/02/08 01:09:45;;;;;;;8.45;3.25;;;;;;;;;;5073017;28;20272;-67
2024/02/08 01:12:12;;;;;;;5.35;3.40;;;;;;;;;;5072954;28;20275;-67
2024/02/08 01:14:39;;;;;;;9.85;4.30;;;;;;;;;;5072815;28;20227;-68
2024/02/08 01:17:06;;;;;;;4.88;2.80;;;;;;;;;;5072705;28;20311;-67
2024/02/08 01:19:33;;;;;;;10.02;3.97;;;;;;;;;;5072678;28;20195;-67
2024/02/08 01:22:01;;;;;;;5.32;3.50;;;;;;;;;;5073049;28;20196;-67
2024/02/08 01:24:28;;;;;;;5.00;3.35;;;;;;;;;;5072623;28;20656;-67
2024/02/08 01:26:57;;;;;;;6.90;3.80;;;;;;;;;;5072544;28;20765;-67
2024/02/08 01:29:26;;;;;;;6.82;3.47;;;;;;;;;;5072702;28;20192;-68
2024/02/08 01:31:53;;;;;;;5.43;3.20;;;;;;;;;;5072640;28;20577;-67
2024/02/08 01:34:20;;;;;;;8.13;3.75;;;;;;;;;;5072465;28;20724;-67
2024/02/08 01:36:53;;;;;;;9.05;3.90;;;;;;;;;;5072625;28;20216;-67
2024/02/08 01:39:24;;;;;;;5.53;3.42;;;;;;;;;;5072691;28;20591;-67
2024/02/08 01:41:51;;;;;;;5.47;3.47;;;;;;;;;;5072634;28;20601;-67
2024/02/08 01:44:21;;;;;;;7.28;3.30;;;;;;;;;;5072611;28;20194;-67
2024/02/08 01:46:48;;;;;;;9.73;4.28;;;;;;;;;;5072488;28;20194;-67
2024/02/08 01:49:18;;;;;;;10.07;4.00;;;;;;;;;;5072387;28;20189;-67
2024/02/08 01:51:45;;;;;;;6.90;3.10;;;;;;;;;;5072618;28;20557;-67
2024/02/08 01:54:14;;;;;;;9.18;3.75;;;;;;;;;;5072507;28;20272;-67
2024/02/08 01:56:42;;;;;;;7.53;3.78;;;;;;;;;;5072238;28;20677;-67
2024/02/08 01:59:10;;;;;;;6.38;2.97;;;;;;;;;;5072340;28;20196;-67
2024/02/08 02:01:38;;;;;;;6.15;3.38;;;;;;;;;;5072493;28;20185;-67
2024/02/08 02:04:08;;;;;;;8.40;3.47;;;;;;;;;;5072213;28;20653;-67
2024/02/08 02:06:35;;;;;;;7.20;3.45;;;;;;;;;;5072444;28;20204;-68
2024/02/08 02:09:02;;;;;;;8.73;3.53;;;;;;;;;;5072316;28;20190;-67
2024/02/08 02:11:35;;;;;;;8.15;3.47;;;;;;;;;;5072229;28;20194;-68
2024/02/08 02:14:04;;;;;;;4.53;2.50;;;;;;;;;;5072225;28;20186;-68
2024/02/08 02:16:31;;;;;;;8.90;3.45;;;;;;;;;;5074957;28;20217;-67
2024/02/08 02:18:58;;;;;;;5.00;2.80;;;;;;;;;;5075850;28;20196;-67
2024/02/08 02:21:27;;;;;;;6.55;2.83;;;;;;;;;;5075864;28;20276;-67
2024/02/08 02:23:54;;;;;;;11.25;2.95;;;;;;;;;;5075738;28;20623;-67
2024/02/08 02:26:22;;;;;;;7.53;3.70;;;;;;;;;;5075715;28;20316;-67
2024/02/08 02:28:50;;;;;;;6.53;3.20;;;;;;;;;;5075772;28;20605;-67
2024/02/08 02:31:19;;;;;;;5.78;2.70;;;;;;;;;;5075708;28;20195;-67
2024/02/08 02:33:48;;;;;;;3.78;2.92;;;;;;;;;;5075660;28;20185;-67
2024/02/08 02:36:17;;;;;;;4.82;3.25;;;;;;;;;;5075496;28;20217;-67
2024/02/08 02:38:45;;;;;;;9.52;3.33;;;;;;;;;;5075390;28;20193;-67
2024/02/08 02:41:12;;;;;;;5.32;2.90;;;;;;;;;;5075859;28;20548;-67
2024/02/08 02:43:39;;;;;;;8.20;3.10;;;;;;;;;;5075414;28;20189;-67
2024/02/08 02:46:07;;;;;;;4.93;3.20;;;;;;;;;;5075421;28;20280;-67
2024/02/08 02:48:34;;;;;;;10.35;4.88;;;;;;;;;;5075325;28;20223;-67
2024/02/08 02:51:01;;;;;;;8.93;2.90;;;;;;;;;;5075203;28;20243;-67
2024/02/08 02:53:30;;;;;;;10.25;3.47;;;;;;;;;;5075101;28;20192;-67
2024/02/08 02:55:59;;;;;;;2.83;2.35;;;;;;;;;;5075212;28;20212;-66
2024/02/08 02:58:26;;;;;;;4.28;2.55;;;;;;;;;;5075221;28;20190;-67
2024/02/08 03:00:59;;;;;;;5.95;1.92;;;;;;;;;;5075083;28;20280;-66
2024/02/08 03:03:26;;;;;;;7.10;3.90;;;;;;;;;;5075042;28;20199;-66
2024/02/08 03:05:56;;;;;;;6.53;3.30;;;;;;;;;;5074860;28;20185;-67
2024/02/08 03:08:24;;;;;;;5.75;2.83;;;;;;;;;;5075031;28;20221;-67
2024/02/08 03:10:52;;;;;;;12.73;3.83;;;;;;;;;;5075004;28;20189;-67
2024/02/08 03:13:20;;;;;;;4.82;2.75;;;;;;;;;;5074851;28;20662;-67
2024/02/08 03:15:47;;;;;;;7.28;2.95;;;;;;;;;;5074682;28;20196;-67
2024/02/08 03:18:14;;;;;;;10.55;3.63;;;;;;;;;;5074643;28;20193;-67
2024/02/08 03:20:45;;;;;;;7.82;3.83;;;;;;;;;;5074501;28;20286;-67
2024/02/08 03:23:12;;;;;;;3.45;2.30;;;;;;;;;;5074585;28;20212;-67
2024/02/08 03:25:41;;;;;;;4.50;2.35;;;;;;;;;;5074468;28;20223;-67
2024/02/08 03:28:08;;;;;;;6.05;3.90;;;;;;;;;;5073843;28;20209;-67
2024/02/08 03:30:36;;;;;;;7.43;2.63;;;;;;;;;;5074488;28;20268;-67
2024/02/08 03:33:15;;;;;;;6.95;2.92;;;;;;;;;;5074272;28;20723;-67
2024/02/08 03:35:45;;;;;;;5.35;3.00;;;;;;;;;;5074511;28;20195;-67
2024/02/08 03:38:12;;;;;;;4.90;3.30;;;;;;;;;;5074373;28;20216;-67
2024/02/08 03:40:39;;;;;;;4.72;2.60;;;;;;;;;;5074210;28;20276;-67
2024/02/08 03:43:06;;;;;;;4.35;3.03;;;;;;;;;;5074081;28;20724;-67
2024/02/08 03:45:39;;;;;;;3.95;2.75;;;;;;;;;;5074052;28;20280;-67
2024/02/08 03:48:10;;;;;;;8.32;4.63;;;;;;;;;;5074251;28;20196;-67
2024/02/08 03:50:37;;;;;;;4.53;2.50;;;;;;;;;;5074162;28;20189;-67
2024/02/08 03:53:08;;;;;;;4.78;3.63;;;;;;;;;;5074026;28;20593;-67
2024/02/08 03:55:35;;;;;;;5.38;3.40;;;;;;;;;;5073949;28;20231;-67
2024/02/08 03:58:06;;;;;;;6.40;2.67;;;;;;;;;;5074230;28;20567;-67
2024/02/08 04:00:34;;;;;;;6.32;3.90;;;;;;;;;;5073988;28;20193;-67
2024/02/08 04:03:04;;;;;;;5.72;3.55;;;;;;;;;;5073885;28;20667;-67
2024/02/08 04:05:42;;;;;;;6.90;3.50;;;;;;;;;;5073796;28;20239;-67
2024/02/08 04:08:22;;;;;;;7.70;3.40;;;;;;;;;;5073669;28;20193;-67
2024/02/08 04:54:59;;;;;;;9.65;5.10;;;;;;;;;;5073218;28;20679;-67
2024/02/08 04:57:26;;;;;;;5.72;4.68;;;;;;;;;;5073043;28;20217;-67
2024/02/08 04:59:53;;;;;;;5.38;4.78;;;;;;;;;;5072899;28;20272;-67
2024/02/08 05:02:20;;;;;;;7.90;4.47;;;;;;;;;;5072864;28;20626;-68
2024/02/08 05:04:48;;;;;;;6.55;5.43;;;;;;;;;;5072808;28;20276;-67
2024/02/08 05:07:15;;;;;;;5.38;4.75;;;;;;;;;;5073069;28;20553;-67
2024/02/08 05:09:42;;;;;;;6.00;4.60;;;;;;;;;;5072919;28;20203;-67
2024/02/08 05:12:12;;;;;;;6.28;4.63;;;;;;;;;;5072635;28;20826;-67
2024/02/08 05:14:39;;;;;;;5.57;5.07;;;;;;;;;;5072569;28;20236;-67
2024/02/08 05:17:08;;;;;;;6.45;5.47;;;;;;;;;;5072574;28;20216;-68
2024/02/08 05:19:35;;;;;;;4.90;4.40;;;;;;;;;;5072898;28;20280;-67
2024/02/08 05:22:02;;;;;;;7.15;5.32;;;;;;;;;;5072852;28;20581;-68
2024/02/08 05:24:30;;;;;;;6.45;4.97;;;;;;;;;;5072793;28;20739;-68
2024/02/08 05:26:57;;;;;;;7.70;5.68;;;;;;;;;;5072511;28;20708;-67
2024/02/08 05:29:26;;;;;;;7.93;5.50;;;;;;;;;;5072650;28;20280;-67
2024/02/08 05:31:53;;;;;;;7.18;5.60;;;;;;;;;;5072823;28;20192;-67
2024/02/08 05:34:21;;;;;;;6.95;5.47;;;;;;;;;;5072665;28;20189;-67
2024/02/08 05:36:49;;;;;;;9.27;6.20;;;;;;;;;;5072647;28;20213;-67
2024/02/08 05:39:23;;;;;;;8.23;6.43;;;;;;;;;;5072481;28;20201;-67
2024/02/08 05:41:50;;;;;;;9.57;6.75;;;;;;;;;;5072526;28;20203;-67
2024/02/08 05:44:20;;;;;;;8.10;6.40;;;;;;;;;;5072436;28;20657;-67
2024/02/08 05:46:49;;;;;;;12.95;8.40;;;;;;;;;;5072633;28;20196;-67
2024/02/08 05:49:25;;;;;;;11.00;7.05;;;;;;;;;;5072573;28;20216;-67
2024/02/08 05:51:54;;;;;;;14.45;7.38;;;;;;;;;;5075877;28;20189;-67
2024/02/08 05:54:22;;;;;;;9.07;6.55;;;;;;;;;;5076185;28;20189;-67
2024/02/08 05:56:57;;;;;;;7.72;6.75;;;;;;;;;;5075980;28;20744;-67
2024/02/08 05:59:24;;;;;;;8.95;6.05;;;;;;;;;;5076377;28;20242;-67
2024/02/08 06:01:54;;;;;;;14.50;7.20;;;;;;;;;;5076169;28;20272;-67
2024/02/08 06:04:24;;;;;;;8.90;6.88;;;;;;;;;;5076217;28;20193;-67
2024/02/08 06:06:58;;;;;;;7.38;6.63;;;;;;;;;;5075960;28;20285;-67
2024/02/08 06:09:52;;;;;;;7.65;6.65;;;;;;;;;;5076210;28;20177;-68
2024/02/08 06:12:24;;;;;;;9.73;6.60;;;;;;;;;;5076019;28;20619;-67
2024/02/08 06:14:57;;;;;;;13.75;6.72;;;;;;;;;;5075870;28;20189;-67
2024/02/08 06:17:31;;;;;;;9.55;6.72;;;;;;;;;;5075640;28;20282;-67
2024/02/08 06:20:00;;;;;;;8.73;6.18;;;;;;;;;;5075682;28;20653;-68
2024/02/08 06:22:29;;;;;;;8.82;6.05;;;;;;;;;;5075796;28;20228;-67
2024/02/08 06:25:08;;;;;;;8.20;7.05;;;;;;;;;;5075656;28;20193;-67
2024/02/08 06:27:36;;;;;;;11.07;7.40;;;;;;;;;;5075654;28;20603;-67
2024/02/08 06:30:08;;;;;;;8.90;7.53;;;;;;;;;;5075526;28;20637;-67
2024/02/08 06:32:43;;;;;;;11.50;7.38;;;;;;;;;;5075938;28;20189;-68
2024/02/08 06:35:12;;;;;;;10.10;6.97;;;;;;;;;;5075590;28;20250;-67
2024/02/08 06:37:44;;;;;;;13.02;6.68;;;;;;;;;;5075411;28;20846;-67
2024/02/08 06:40:21;;;;;;;11.45;7.25;;;;;;;;;;5075358;28;20192;-67
2024/02/08 06:45:53;;;;;;;10.23;6.53;;;;;;;;;;5074897;28;20193;-67
2024/02/08 07:37:55;;;;;;;12.60;8.85;;;;;;;;;;5074208;28;20411;-68
2024/02/08 07:40:26;;;;;;;16.33;10.02;;;;;;;;;;5074112;28;20280;-68
2024/02/08 07:43:02;;;;;;;14.77;10.02;;;;;;;;;;5074038;28;20653;-68
2024/02/08 07:45:33;;;;;;;16.00;10.15;;;;;;;;;;5074138;28;20554;-67
2024/02/08 07:48:08;;;;;;;12.65;8.82;;;;;;;;;;5074010;28;20228;-67
2024/02/08 07:50:37;;;;;;;14.10;8.98;;;;;;;;;;5073967;28;20591;-67
2024/02/08 07:53:08;;;;;;;14.52;9.25;;;;;;;;;;5073841;28;20190;-67
2024/02/08 07:55:53;;;;;;;19.52;9.38;;;;;;;;;;5073792;28;20212;-66
2024/02/08 07:58:20;;;;;;;13.68;9.65;;;;;;;;;;5071784;28;20460;-66
2024/02/08 08:00:49;;;;;;;14.43;10.07;;;;;;;;;;5053380;28;20639;-65
2024/02/08 08:03:16;;;;;;;14.98;9.27;;;;;;;;;;5052803;28;20186;-66
2024/02/08 08:05:44;;;;;;;13.40;9.15;;;;;;;;;;5053530;28;20194;-65
2024/02/08 08:08:24;;;;;;;15.00;9.93;;;;;;;;;;5053771;28;20190;-66
2024/02/08 08:10:56;;;;;;;13.65;9.90;;;;;;;;;;5053536;28;20272;-65
2024/02/08 08:13:50;;;;;;;15.20;9.45;;;;;;;;;;5053205;28;20193;-62
2024/02/08 08:18:57;;;;;;;15.88;10.05;;;;;;;;;;5073163;28;20351;-64
2024/02/08 08:21:25;;;;;;;16.63;10.52;;;;;;;;;;5073282;28;20228;-65
2024/02/08 08:24:00;;;;;;;16.15;9.60;;;;;;;;;;5073076;28;20200;-67
2024/02/08 08:26:37;;;;;;;17.25;10.98;;;;;;;;;;5073039;28;20217;-65
2024/02/08 08:29:04;;;;;;;19.38;11.45;;;;;;;;;;5073282;28;20292;-65
2024/02/08 08:31:51;;;;;;;18.92;10.88;;;;;;;;;;5073218;28;20251;-65
2024/02/08 08:37:39;;;;;;;16.88;11.60;;;;;;;;;;5072649;28;20542;-71
2024/02/08 08:40:25;;;;;;;18.27;11.50;;;;;;;;;;5073139;28;20530;-63
2024/02/08 08:42:54;;;;;;;16.95;9.68;;;;;;;;;;5072974;28;20246;-71
2024/02/08 08:45:20;;;;;;;18.42;10.93;;;;;;;;;;5072980;28;20247;-71
2024/02/08 08:47:51;;;;;;;21.77;12.45;;;;;;;;;;5073169;28;20185;-71
2024/02/08 08:50:20;;;;;;;19.48;11.80;;;;;;;;;;5073012;28;20201;-71
2024/02/08 08:52:49;;;;;;;20.77;12.07;;;;;;;;;;5073054;28;20284;-71
2024/02/08 08:55:20;;;;;;;18.73;11.68;;;;;;;;;;5073153;28;20247;-65
2024/02/08 08:57:53;;;;;;;22.40;14.20;;;;;;;;;;5072804;28;20225;-61
2024/02/08 09:00:31;;;;;;;19.85;12.55;;;;;;;;;;5072895;28;20193;-65
2024/02/08 09:02:58;;;;;;;25.52;13.23;;;;;;;;;;5072872;28;20594;-64
2024/02/08 09:05:30;;;;;;;21.60;11.52;;;;;;;;;;5072775;28;20280;-62
2024/02/08 09:07:57;;;;;;;20.00;11.40;;;;;;;;;;5072701;28;20193;-65
2024/02/08 09:10:33;;;;;;;24.13;12.15;;;;;;;;;;5072551;28;20587;-73
2024/02/08 09:13:00;;;;;;;19.88;10.88;;;;;;;;;;5072770;28;20189;-66
2024/02/08 09:15:27;;;;;;;20.05;12.20;;;;;;;;;;5072677;28;20185;-64
2024/02/08 09:17:53;;;;;;;17.92;10.60;;;;;;;;;;5072638;28;20212;-67
2024/02/08 09:20:20;;;;;;;23.55;12.98;;;;;;;;;;5072570;28;20216;-66
2024/02/08 09:22:50;;;;;;;22.08;12.23;;;;;;;;;;5072587;28;20218;-70
2024/02/08 09:25:17;;;;;;;18.52;11.10;;;;;;;;;;5073277;28;20221;-61
2024/02/08 09:27:47;;;;;;;20.02;12.80;;;;;;;;;;5076484;28;20668;-63
2024/02/08 09:30:14;;;;;;;19.13;11.80;;;;;;;;;;5076609;28;20191;-63
2024/02/08 09:32:44;;;;;;;21.10;12.13;;;;;;;;;;5076562;28;20731;-65
2024/02/08 09:35:16;;;;;;;22.48;12.13;;;;;;;;;;5076505;28;20292;-67
2024/02/08 09:37:45;;;;;;;21.08;12.68;;;;;;;;;;5076410;28;20219;-68
2024/02/08 09:40:20;;;;;;;19.40;11.65;;;;;;;;;;5076527;28;20189;-68
2024/02/08 09:42:55;;;;;;;19.77;12.30;;;;;;;;;;5076048;28;20188;-69
2024/02/08 09:48:11;;;;;;;16.83;11.48;;;;;;;;;;5075127;28;20582;-69
2024/02/08 09:50:47;;;;;;;17.75;11.23;;;;;;;;;;5075461;28;20193;-69
2024/02/08 09:53:18;;;;;;;18.90;11.30;;;;;;;;;;5075383;28;20193;-69
2024/02/08 09:55:47;;;;;;;15.80;11.05;;;;;;;;;;5075215;28;20193;-69
2024/02/08 09:58:31;;;;;;;17.60;11.23;;;;;;;;;;5075299;28;20621;-69
2024/02/08 10:00:58;;;;;;;16.45;11.00;;;;;;;;;;5076023;28;20648;-69
2024/02/08 10:03:32;;;;;;;16.98;11.13;;;;;;;;;;5076175;28;20189;-69
2024/02/08 10:06:00;;;;;;;17.38;10.95;;;;;;;;;;5076021;28;20236;-72
2024/02/08 10:08:32;;;;;;;18.63;11.73;;;;;;;;;;5076398;28;20292;-68
2024/02/08 10:11:11;;;;;;;20.50;11.90;;;;;;;;;;5075813;28;20193;-68
2024/02/08 10:13:53;;;;;;;19.23;12.07;;;;;;;;;;5075841;28;20193;-68
2024/02/08 10:16:29;;;;;;;17.85;11.27;;;;;;;;;;5075855;28;20193;-64
2024/02/08 10:19:02;;;;;;;19.40;12.25;;;;;;;;;;5075684;28;20216;-65
2024/02/08 10:21:29;;;;;;;19.95;11.95;;;;;;;;;;5075627;28;20189;-63
2024/02/08 10:23:59;;;;;;;21.98;12.45;;;;;;;;;;5075647;28;20537;-63
2024/02/08 10:26:27;;;;;;;17.23;12.47;;;;;;;;;;5075426;28;20220;-64
2024/02/08 10:28:56;;;;;;;19.45;12.23;;;;;;;;;;5075559;28;20458;-63
2024/02/08 10:31:24;;;;;;;16.40;11.55;;;;;;;;;;5075452;28;20530;-68
2024/02/08 10:33:57;;;;;;;16.90;10.85;;;;;;;;;;5075352;28;20197;-62
2024/02/08 10:36:31;;;;;;;19.33;11.98;;;;;;;;;;5075316;28;20292;-63
2024/02/08 10:39:07;;;;;;;17.63;11.57;;;;;;;;;;5075305;28;20349;-66
2024/02/08 10:41:40;;;;;;;24.50;14.17;;;;;;;;;;5075311;28;20189;-68
2024/02/08 10:44:17;;;;;;;17.63;11.65;;;;;;;;;;5075149;28;20734;-62
2024/02/08 10:46:46;;;;;;;18.13;11.50;;;;;;;;;;5075406;28;20552;-67
2024/02/08 10:49:13;;;;;;;22.67;14.18;;;;;;;;;;5075131;28;20505;-64
2024/02/08 10:51:43;;;;;;;16.63;11.93;;;;;;;;;;5075230;28;20614;-67
2024/02/08 10:54:14;;;;;;;17.65;12.75;;;;;;;;;;5075056;28;20262;-68
2024/02/08 10:56:44;;;;;;;19.50;13.35;;;;;;;;;;5074911;28;20189;-66
2024/02/08 10:59:14;;;;;;;18.33;11.27;;;;;;;;;;5074934;28;20224;-66
2024/02/08 11:04:28;;;;;;;19.93;12.83;;;;;;;;;;5074539;28;20938;-64
2024/02/08 11:07:06;;;;;;;23.33;12.53;;;;;;;;;;5074567;28;20450;-66
2024/02/08 11:09:34;;;;;;;18.97;12.57;;;;;;;;;;5074891;28;20474;-65
2024/02/08 11:12:04;;;;;;;17.53;12.47;;;;;;;;;;5074743;28;20450;-65
2024/02/08 11:14:34;;;;;;;19.10;11.90;;;;;;;;;;5074647;28;20542;-64
2024/02/08 11:17:05;;;;;;;22.08;12.60;;;;;;;;;;5074756;28;20443;-65
2024/02/08 11:19:35;;;;;;;19.70;11.30;;;;;;;;;;5074347;28;20224;-66
2024/02/08 11:22:24;;;;;;;21.57;11.80;;;;;;;;;;5074658;28;20809;-63
2024/02/08 11:24:57;;;;;;;31.07;13.30;;;;;;;;;;5074396;28;20926;-65
2024/02/08 11:27:27;;;;;;;18.98;11.20;;;;;;;;;;5074420;28;20444;-64
2024/02/08 11:29:58;;;;;;;49.42;19.48;;;;;;;;;;5074012;28;20185;-66
2024/02/08 11:32:27;;;;;;;19.40;12.67;;;;;;;;;;5074298;28;20200;-65
2024/02/08 11:35:00;;;;;;;21.50;12.53;;;;;;;;;;5074199;28;20547;-66
2024/02/08 11:37:30;;;;;;;16.53;10.93;;;;;;;;;;5074115;28;20454;-66
2024/02/08 11:40:01;;;;;;;19.40;12.70;;;;;;;;;;5074109;28;20483;-64
2024/02/08 11:42:35;;;;;;;23.00;13.97;;;;;;;;;;5074022;28;20455;-67
2024/02/08 11:45:08;;;;;;;21.27;11.60;;;;;;;;;;5074360;28;20443;-66
2024/02/08 11:47:37;;;;;;;22.27;11.87;;;;;;;;;;5073723;28;20857;-67
2024/02/08 11:50:08;;;;;;;23.53;12.27;;;;;;;;;;5073791;28;21005;-70
2024/02/08 11:52:38;;;;;;;22.05;13.27;;;;;;;;;;5073808;28;20935;-68
2024/02/08 11:55:08;;;;;;;15.50;11.23;;;;;;;;;;5073618;28;20649;-68
2024/02/08 11:57:40;;;;;;;18.27;11.15;;;;;;;;;;5073747;28;20454;-69
2024/02/08 12:00:19;;;;;;;18.90;12.37;;;;;;;;;;5073506;28;20615;-69
2024/02/08 12:02:47;;;;;;;19.67;13.00;;;;;;;;;;5073648;28;20477;-69
2024/02/08 12:05:16;;;;;;;21.73;12.90;;;;;;;;;;5073603;28;20456;-68
2024/02/08 12:07:45;;;;;;;18.92;12.68;;;;;;;;;;5073084;28;20859;-68
2024/02/08 12:10:15;;;;;;;18.33;11.50;;;;;;;;;;5073573;28;20599;-69
2024/02/08 12:12:43;;;;;;;16.97;12.20;;;;;;;;;;5073519;28;20501;-68
2024/02/08 12:15:12;;;;;;;25.53;13.07;;;;;;;;;;5073329;28;20531;-69
2024/02/08 12:17:41;;;;;;;21.23;11.67;;;;;;;;;;5073300;28;20443;-67
2024/02/08 12:20:10;;;;;;;15.07;10.80;;;;;;;;;;5073052;28;20488;-69
2024/02/08 12:22:37;;;;;;;17.23;12.93;;;;;;;;;;5073236;28;20443;-68
2024/02/08 12:25:07;;;;;;;15.30;11.03;;;;;;;;;;5073090;28;20542;-63
2024/02/08 12:27:34;;;;;;;14.20;9.70;;;;;;;;;;5072883;28;20448;-69
2024/02/08 12:30:02;;;;;;;17.17;10.40;;;;;;;;;;5072944;28;20532;-69
2024/02/08 12:32:31;;;;;;;20.70;11.07;;;;;;;;;;5072875;28;20878;-63
2024/02/08 12:35:12;;;;;;;18.40;10.93;;;;;;;;;;5072440;28;20447;-68
2024/02/08 12:37:41;;;;;;;16.67;10.07;;;;;;;;;;5072862;28;20447;-68
2024/02/08 12:40:12;;;;;;;18.20;11.23;;;;;;;;;;5072943;28;20490;-66
2024/02/08 12:42:39;;;;;;;15.87;9.73;;;;;;;;;;5072970;28;20447;-62
2024/02/08 12:45:10;;;;;;;15.30;10.40;;;;;;;;;;5072840;28;20532;-65
2024/02/08 12:47:39;;;;;;;16.80;10.83;;;;;;;;;;5073309;28;20922;-66
2024/02/08 12:50:08;;;;;;;20.17;11.40;;;;;;;;;;5068117;28;20965;-63
2024/02/08 12:52:35;;;;;;;14.80;9.43;;;;;;;;;;5071725;28;21405;-66
2024/02/08 12:55:02;;;;;;;14.23;9.53;;;;;;;;;;5072438;28;20534;-66
2024/02/08 12:57:29;;;;;;;16.43;9.83;;;;;;;;;;5072088;28;20959;-70
2024/02/08 13:00:09;;;;;;;16.20;9.97;;;;;;;;;;5071389;28;20524;-64
2024/02/08 13:02:36;;;;;;;15.40;10.17;;;;;;;;;;5072174;28;20478;-70
2024/02/08 13:05:05;;;;;;;16.57;9.67;;;;;;;;;;5060240;28;20443;-68
2024/02/08 13:07:32;;;;;;;13.40;9.43;;;;;;;;;;5069906;28;20473;-67
2024/02/08 13:10:03;;;;;;;16.57;10.37;;;;;;;;;;5071687;28;20440;-66
2024/02/08 13:12:30;;;;;;;14.27;9.40;;;;;;;;;;5072532;28;20836;-66
2024/02/08 13:15:02;;;;;;;17.03;10.10;;;;;;;;;;5072628;28;20534;-68
2024/02/08 13:17:33;;;;;;;19.17;10.10;;;;;;;;;;5072601;28;20815;-68
2024/02/08 13:20:11;;;;;;;12.00;9.13;;;;;;;;;;5072403;28;20475;-71
2024/02/08 13:22:41;;;;;;;16.53;9.30;;;;;;;;;;5072127;28;20447;-72
2024/02/08 13:25:12;;;;;;;14.20;9.93;;;;;;;;;;5072861;28;20787;-71
2024/02/08 13:27:39;;;;;;;13.93;8.57;;;;;;;;;;5072726;28;20443;-67
2024/02/08 13:30:14;;;;;;;11.33;8.20;;;;;;;;;;5072395;28;20610;-64
2024/02/08 13:32:42;;;;;;;16.43;9.00;;;;;;;;;;5072432;28;20870;-69
2024/02/08 13:35:09;;;;;;;12.83;9.53;;;;;;;;;;5072414;28;20779;-64
2024/02/08 13:37:37;;;;;;;14.90;9.07;;;;;;;;;;5072435;28;20447;-71
2024/02/08 13:40:07;;;;;;;11.87;9.13;;;;;;;;;;5072342;28;20479;-67
2024/02/08 13:42:38;;;;;;;14.20;9.83;;;;;;;;;;5072251;28;20542;-71
2024/02/08 13:45:05;;;;;;;13.73;9.10;;;;;;;;;;5072226;28;20845;-70
2024/02/08 13:47:36;;;;;;;15.10;8.93;;;;;;;;;;5072176;28;20534;-70
2024/02/08 13:50:06;;;;;;;10.70;7.77;;;;;;;;;;5072170;28;20843;-67
2024/02/08 13:52:33;;;;;;;10.77;8.27;;;;;;;;;;5072228;28;20439;-64
2024/02/08 13:54:59;;;;;;;11.53;7.60;;;;;;;;;;5072272;28;20444;-69
2024/02/08 13:57:30;;;;;;;12.90;8.90;;;;;;;;;;5072197;28;20531;-74
2024/02/08 14:00:03;;;;;;;12.97;8.63;;;;;;;;;;5072104;28;20505;-67
2024/02/08 14:02:32;;;;;;;16.63;9.10;;;;;;;;;;5072456;28;20954;-64
2024/02/08 14:05:04;;;;;;;16.27;8.40;;;;;;;;;;5072153;28;20447;-64
2024/02/08 14:07:31;;;;;;;10.70;7.90;;;;;;;;;;5072286;28;20451;-64
2024/02/08 14:09:59;;;;;;;14.73;9.00;;;;;;;;;;5072189;28;20443;-64
2024/02/08 14:12:27;;;;;;;23.57;9.43;;;;;;;;;;5074701;28;20450;-64
2024/02/08 14:14:55;;;;;;;14.55;9.02;;;;;;;;;;5075993;28;20439;-64
2024/02/08 14:17:22;;;;;;;11.23;7.27;;;;;;;;;;5075897;28;20227;-64
2024/02/08 14:19:49;;;;;;;13.10;7.97;;;;;;;;;;5075765;28;20556;-63
2024/02/08 14:22:17;;;;;;;14.10;8.23;;;;;;;;;;5075552;28;20479;-64
2024/02/08 14:24:51;;;;;;;12.05;8.68;;;;;;;;;;5075571;28;20220;-63
2024/02/08 14:27:18;;;;;;;12.85;8.70;;;;;;;;;;5075570;28;20216;-64
2024/02/08 14:29:48;;;;;;;11.53;7.90;;;;;;;;;;5075595;28;20194;-64
2024/02/08 14:32:15;;;;;;;10.33;7.40;;;;;;;;;;5075779;28;20518;-64
2024/02/08 14:34:43;;;;;;;11.43;8.20;;;;;;;;;;5075459;28;20501;-64
2024/02/08 14:37:10;;;;;;;10.30;7.87;;;;;;;;;;5075371;28;20525;-64
2024/02/08 14:39:38;;;;;;;16.27;10.68;;;;;;;;;;5075236;28;20550;-64
2024/02/08 14:42:10;;;;;;;15.27;11.00;;;;;;;;;;5075494;28;20193;-63
2024/02/08 14:44:44;;;;;;;14.10;9.80;;;;;;;;;;5075360;28;20931;-64
2024/02/08 14:47:21;;;;;;;16.85;9.93;;;;;;;;;;5073637;28;20530;-64
2024/02/08 14:49:58;;;;;;;14.60;8.40;;;;;;;;;;5074847;28;20195;-64
2024/02/08 14:52:29;;;;;;;14.50;8.70;;;;;;;;;;5074972;28;20776;-64
2024/02/08 14:54:58;;;;;;;15.77;8.30;;;;;;;;;;5074873;28;20444;-64
2024/02/08 14:57:26;;;;;;;15.80;11.50;;;;;;;;;;5074858;28;21002;-64
2024/02/08 15:00:49;;;;;;;15.85;11.30;;;;;;;;;;5074781;28;20518;-64
2024/02/08 15:02:55;;;;;;;15.00;10.55;;;;;;;;;;5074765;28;20678;-64
2024/02/08 15:05:40;;;;;;;12.73;8.30;;;;;;;;;;5075097;28;20212;-64
2024/02/08 15:08:29;;;;;;;12.13;8.50;;;;;;;;;;5074887;28;20439;-64
2024/02/08 15:11:02;;;;;;;12.30;9.65;;;;;;;;;;5074751;28;20466;-64
2024/02/08 15:13:38;;;;;;;18.57;9.17;;;;;;;;;;5074925;28;20189;-64
2024/02/08 15:16:07;;;;;;;16.52;9.13;;;;;;;;;;5074813;28;20447;-64
2024/02/08 15:18:47;;;;;;;11.32;8.02;;;;;;;;;;5074687;28;20192;-64
2024/02/08 15:21:14;;;;;;;15.73;10.70;;;;;;;;;;5074544;28;20221;-64
2024/02/08 15:23:47;;;;;;;10.20;8.77;;;;;;;;;;5073789;28;20440;-64
2024/02/08 15:26:24;;;;;;;12.93;8.32;;;;;;;;;;5074421;28;20271;-64
2024/02/08 15:28:55;;;;;;;11.77;8.30;;;;;;;;;;5074543;28;20583;-64
2024/02/08 15:34:27;;;;;;;13.13;7.77;;;;;;;;;;5152103;27;20865;-64
2024/02/08 15:42:31;;;;;;;12.35;9.15;;;;;;;;;;5113849;28;20818;-64
2024/02/08 15:44:58;;;;;;;14.50;10.50;;;;;;;;;;5131204;28;20191;-64
2024/02/08 15:47:28;;;;;;;13.73;9.98;;;;;;;;;;5131008;28;20187;-64
2024/02/08 15:49:58;;;;;;;19.05;13.43;;;;;;;;;;5131043;28;20232;-64
2024/02/08 15:52:29;;;;;;;14.70;10.20;;;;;;;;;;5130814;28;20678;-64
2024/02/08 15:54:58;;;;;;;16.60;8.55;;;;;;;;;;5131188;28;20203;-64
2024/02/08 15:57:29;;;;;;;18.45;13.32;;;;;;;;;;5130971;28;20283;-64
2024/02/08 15:59:59;;;;;;;16.83;8.80;;;;;;;;;;5131008;28;20194;-64
2024/02/08 16:02:25;;;;;;;14.52;9.88;;;;;;;;;;5130730;28;20191;-64
2024/02/08 16:04:52;;;;;;;9.50;8.40;;;;;;;;;;5130609;28;20270;-64
2024/02/08 16:07:27;;;;;;;17.80;9.13;;;;;;;;;;5130384;28;20929;-64
2024/02/08 16:09:58;;;;;;;11.93;8.73;;;;;;;;;;5130775;28;20916;-64
2024/02/08 16:12:36;;;;;;;12.38;9.82;;;;;;;;;;5130656;28;20546;-62
2024/02/08 16:15:07;;;;;;;16.57;12.33;;;;;;;;;;5130479;28;20613;-62
2024/02/08 16:17:39;;;;;;;19.70;13.90;;;;;;;;;;5130391;28;20437;-64
2024/02/08 16:20:08;;;;;;;23.48;17.55;;;;;;;;;;5130682;28;20223;-64
2024/02/08 16:22:47;;;;;;;25.42;17.05;;;;;;;;;;5130515;28;20231;-64
2024/02/08 16:25:17;;;;;;;14.65;10.60;;;;;;;;;;5130491;28;20236;-64
2024/02/08 16:27:48;;;;;;;17.23;11.23;;;;;;;;;;5130191;28;20283;-64
2024/02/08 16:30:28;;;;;;;19.23;13.07;;;;;;;;;;5130431;28;20555;-64
2024/02/08 16:32:56;;;;;;;26.08;14.10;;;;;;;;;;5130015;27;20245;-64
2024/02/08 16:38:16;;;;;;;22.17;15.03;;;;;;;;;;5124271;28;20226;-65
2024/02/08 16:40:46;;;;;;;16.08;13.63;;;;;;;;;;5129967;28;20966;-64
2024/02/08 16:43:13;;;;;;;14.07;11.05;;;;;;;;;;5130111;28;20194;-64
2024/02/08 16:45:47;;;;;;;17.05;12.20;;;;;;;;;;5116368;28;20191;-64